Terminal Aerodrome Forecast
Issued by NWS

Home | Current Version | Previous Version | Text Only | Print | Product List | Glossary On
Versions: 1 2 3 4 5 6 7 8 9 10 11 12 13 14 15 16
000
FTAK31 PAJN 262324
TAFAKT
TAF
PAKT 262324Z 2700/2724 30010G20KT P6SM SCT050 SCT100
     FM270600 34007KT P6SM SCT030 SCT050
     FM271000 32005KT 6SM BR SCT007 BKN100
     FM271200 32004KT 5SM BR BKN007
     FM271600 32008KT 6SM BR SCT007 BKN050
     FM272000 34008KT P6SM FEW050 BKN070
      AMD LTD TO CLD VIS AND WIND 2706/2715=

USA.gov is the U.S. government's official web portal to all federal, state and local government web resources and services.